sensor_id;sensor_type;location;lat;lon;timestamp;P1;durP1;ratioP1;P2;durP2;ratioP2
74487;SDS011;63019;51.080;13.642;2024-01-07T00:00:24;27.17;;;11.13;;
74487;SDS011;63019;51.080;13.642;2024-01-07T00:01:26;25.27;;;10.90;;
74487;SDS011;63019;51.080;13.642;2024-01-07T00:02:28;17.20;;;7.97;;
74487;SDS011;63019;51.080;13.642;2024-01-07T00:03:32;20.30;;;9.40;;
74487;SDS011;63019;51.080;13.642;2024-01-07T00:04:36;21.83;;;8.77;;
74487;SDS011;63019;51.080;13.642;2024-01-07T00:05:39;24.50;;;9.88;;
74487;SDS011;63019;51.080;13.642;2024-01-07T00:06:41;26.10;;;10.30;;
74487;SDS011;63019;51.080;13.642;2024-01-07T00:07:54;22.60;;;9.68;;
74487;SDS011;63019;51.080;13.642;2024-01-07T00:08:56;26.52;;;10.65;;
74487;SDS011;63019;51.080;13.642;2024-01-07T00:10:16;24.77;;;10.73;;
74487;SDS011;63019;51.080;13.642;2024-01-07T00:11:18;26.45;;;11.23;;
74487;SDS011;63019;51.080;13.642;2024-01-07T00:12:26;25.17;;;11.20;;
74487;SDS011;63019;51.080;13.642;2024-01-07T00:13:28;28.37;;;11.60;;
74487;SDS011;63019;51.080;13.642;2024-01-07T00:14:30;25.13;;;11.50;;
74487;SDS011;63019;51.080;13.642;2024-01-07T00:15:34;21.10;;;10.10;;
74487;SDS011;63019;51.080;13.642;2024-01-07T00:16:37;28.30;;;11.30;;
74487;SDS011;63019;51.080;13.642;2024-01-07T00:17:41;21.70;;;10.98;;
74487;SDS011;63019;51.080;13.642;2024-01-07T00:18:43;28.38;;;11.35;;
74487;SDS011;63019;51.080;13.642;2024-01-07T00:19:46;30.23;;;11.90;;
74487;SDS011;63019;51.080;13.642;2024-01-07T00:20:48;33.05;;;12.38;;
74487;SDS011;63019;51.080;13.642;2024-01-07T00:21:50;31.70;;;11.93;;
74487;SDS011;63019;51.080;13.642;2024-01-07T00:22:52;32.70;;;12.80;;
74487;SDS011;63019;51.080;13.642;2024-01-07T00:23:54;32.30;;;12.53;;
74487;SDS011;63019;51.080;13.642;2024-01-07T00:24:56;31.48;;;12.27;;
74487;SDS011;63019;51.080;13.642;2024-01-07T00:25:58;32.60;;;12.95;;
74487;SDS011;63019;51.080;13.642;2024-01-07T00:27:00;32.42;;;12.80;;
74487;SDS011;63019;51.080;13.642;2024-01-07T00:28:02;28.65;;;12.73;;
74487;SDS011;63019;51.080;13.642;2024-01-07T00:29:05;34.35;;;13.00;;
74487;SDS011;63019;51.080;13.642;2024-01-07T00:30:07;33.08;;;12.90;;
74487;SDS011;63019;51.080;13.642;2024-01-07T00:31:11;29.52;;;12.25;;
74487;SDS011;63019;51.080;13.642;2024-01-07T00:32:14;30.45;;;12.52;;
74487;SDS011;63019;51.080;13.642;2024-01-07T00:33:16;33.78;;;12.27;;
74487;SDS011;63019;51.080;13.642;2024-01-07T00:34:18;25.93;;;12.13;;
74487;SDS011;63019;51.080;13.642;2024-01-07T00:35:20;30.60;;;12.50;;
74487;SDS011;63019;51.080;13.642;2024-01-07T00:36:22;29.70;;;11.68;;
74487;SDS011;63019;51.080;13.642;2024-01-07T00:37:24;29.52;;;12.30;;
74487;SDS011;63019;51.080;13.642;2024-01-07T00:38:26;26.65;;;11.07;;
74487;SDS011;63019;51.080;13.642;2024-01-07T00:39:28;26.98;;;10.85;;
74487;SDS011;63019;51.080;13.642;2024-01-07T00:40:30;24.25;;;11.35;;
74487;SDS011;63019;51.080;13.642;2024-01-07T00:41:32;26.35;;;10.90;;
74487;SDS011;63019;51.080;13.642;2024-01-07T00:42:34;25.67;;;11.77;;
74487;SDS011;63019;51.080;13.642;2024-01-07T00:43:36;29.17;;;11.48;;
74487;SDS011;63019;51.080;13.642;2024-01-07T00:44:38;28.30;;;11.73;;
74487;SDS011;63019;51.080;13.642;2024-01-07T00:45:40;24.85;;;10.63;;
74487;SDS011;63019;51.080;13.642;2024-01-07T00:46:42;25.75;;;10.57;;
74487;SDS011;63019;51.080;13.642;2024-01-07T00:47:48;30.08;;;9.95;;
74487;SDS011;63019;51.080;13.642;2024-01-07T00:48:51;27.15;;;10.80;;
74487;SDS011;63019;51.080;13.642;2024-01-07T00:49:53;29.77;;;10.45;;
74487;SDS011;63019;51.080;13.642;2024-01-07T00:50:55;34.35;;;11.50;;
74487;SDS011;63019;51.080;13.642;2024-01-07T00:51:57;27.25;;;11.05;;
74487;SDS011;63019;51.080;13.642;2024-01-07T00:52:59;27.15;;;11.68;;
74487;SDS011;63019;51.080;13.642;2024-01-07T00:54:01;29.73;;;10.70;;
74487;SDS011;63019;51.080;13.642;2024-01-07T00:55:04;29.07;;;10.70;;
74487;SDS011;63019;51.080;13.642;2024-01-07T00:56:07;31.48;;;10.93;;
74487;SDS011;63019;51.080;13.642;2024-01-07T00:57:12;30.45;;;11.27;;
74487;SDS011;63019;51.080;13.642;2024-01-07T00:58:14;27.25;;;12.10;;
74487;SDS011;63019;51.080;13.642;2024-01-07T00:59:16;26.85;;;10.82;;
74487;SDS011;63019;51.080;13.642;2024-01-07T01:00:18;31.33;;;11.35;;
74487;SDS011;63019;51.080;13.642;2024-01-07T01:01:21;30.17;;;10.93;;
74487;SDS011;63019;51.080;13.642;2024-01-07T01:02:23;31.50;;;11.55;;
74487;SDS011;63019;51.080;13.642;2024-01-07T01:03:25;26.90;;;10.77;;
74487;SDS011;63019;51.080;13.642;2024-01-07T01:04:28;29.55;;;10.70;;
74487;SDS011;63019;51.080;13.642;2024-01-07T01:05:30;32.73;;;11.27;;
74487;SDS011;63019;51.080;13.642;2024-01-07T01:06:32;29.23;;;12.38;;
74487;SDS011;63019;51.080;13.642;2024-01-07T01:07:34;25.73;;;10.60;;
74487;SDS011;63019;51.080;13.642;2024-01-07T01:08:36;25.08;;;9.63;;
74487;SDS011;63019;51.080;13.642;2024-01-07T01:09:38;27.10;;;10.45;;
74487;SDS011;63019;51.080;13.642;2024-01-07T01:10:40;27.77;;;10.68;;
74487;SDS011;63019;51.080;13.642;2024-01-07T01:11:42;28.15;;;10.80;;
74487;SDS011;63019;51.080;13.642;2024-01-07T01:12:45;28.08;;;11.35;;
74487;SDS011;63019;51.080;13.642;2024-01-07T01:13:47;26.05;;;9.23;;
74487;SDS011;63019;51.080;13.642;2024-01-07T01:14:49;21.85;;;9.18;;
74487;SDS011;63019;51.080;13.642;2024-01-07T01:15:51;26.97;;;9.57;;
74487;SDS011;63019;51.080;13.642;2024-01-07T01:16:54;29.02;;;10.23;;
74487;SDS011;63019;51.080;13.642;2024-01-07T01:17:55;28.27;;;10.48;;
74487;SDS011;63019;51.080;13.642;2024-01-07T01:18:58;30.35;;;10.75;;
74487;SDS011;63019;51.080;13.642;2024-01-07T01:20:00;25.35;;;10.40;;
74487;SDS011;63019;51.080;13.642;2024-01-07T01:21:02;29.02;;;10.82;;
74487;SDS011;63019;51.080;13.642;2024-01-07T01:22:05;27.38;;;9.57;;
74487;SDS011;63019;51.080;13.642;2024-01-07T01:23:07;27.85;;;10.35;;
74487;SDS011;63019;51.080;13.642;2024-01-07T01:24:09;31.42;;;11.13;;
74487;SDS011;63019;51.080;13.642;2024-01-07T01:25:11;25.02;;;10.68;;
74487;SDS011;63019;51.080;13.642;2024-01-07T01:26:14;31.83;;;11.33;;
74487;SDS011;63019;51.080;13.642;2024-01-07T01:27:16;25.20;;;10.13;;
74487;SDS011;63019;51.080;13.642;2024-01-07T01:28:19;30.20;;;10.32;;
74487;SDS011;63019;51.080;13.642;2024-01-07T01:29:21;24.70;;;9.18;;
74487;SDS011;63019;51.080;13.642;2024-01-07T01:30:23;25.75;;;10.13;;
74487;SDS011;63019;51.080;13.642;2024-01-07T01:31:25;25.17;;;9.70;;
74487;SDS011;63019;51.080;13.642;2024-01-07T01:32:27;28.75;;;10.13;;
74487;SDS011;63019;51.080;13.642;2024-01-07T01:33:29;27.02;;;10.63;;
74487;SDS011;63019;51.080;13.642;2024-01-07T01:34:32;26.92;;;10.25;;
74487;SDS011;63019;51.080;13.642;2024-01-07T01:35:34;28.27;;;10.27;;
74487;SDS011;63019;51.080;13.642;2024-01-07T01:36:36;28.37;;;10.60;;
74487;SDS011;63019;51.080;13.642;2024-01-07T01:37:38;28.95;;;10.55;;
74487;SDS011;63019;51.080;13.642;2024-01-07T01:38:40;30.10;;;11.20;;
74487;SDS011;63019;51.080;13.642;2024-01-07T01:39:42;27.08;;;10.73;;
74487;SDS011;63019;51.080;13.642;2024-01-07T01:40:50;30.52;;;9.90;;
74487;SDS011;63019;51.080;13.642;2024-01-07T01:41:53;24.83;;;10.25;;
74487;SDS011;63019;51.080;13.642;2024-01-07T01:42:55;23.50;;;10.35;;
74487;SDS011;63019;51.080;13.642;2024-01-07T01:43:58;32.10;;;10.98;;
74487;SDS011;63019;51.080;13.642;2024-01-07T01:45:00;22.83;;;9.68;;
74487;SDS011;63019;51.080;13.642;2024-01-07T01:46:03;26.95;;;9.85;;
74487;SDS011;63019;51.080;13.642;2024-01-07T01:47:05;20.93;;;8.70;;
74487;SDS011;63019;51.080;13.642;2024-01-07T01:48:09;27.10;;;8.77;;
74487;SDS011;63019;51.080;13.642;2024-01-07T01:49:11;25.75;;;10.18;;
74487;SDS011;63019;51.080;13.642;2024-01-07T01:50:14;32.00;;;10.52;;
74487;SDS011;63019;51.080;13.642;2024-01-07T01:51:17;31.27;;;11.55;;
74487;SDS011;63019;51.080;13.642;2024-01-07T01:52:19;28.67;;;10.68;;
74487;SDS011;63019;51.080;13.642;2024-01-07T01:53:22;30.95;;;10.70;;
74487;SDS011;63019;51.080;13.642;2024-01-07T01:54:25;33.20;;;11.75;;
74487;SDS011;63019;51.080;13.642;2024-01-07T01:55:27;31.35;;;11.40;;
74487;SDS011;63019;51.080;13.642;2024-01-07T01:56:29;33.28;;;11.30;;
74487;SDS011;63019;51.080;13.642;2024-01-07T01:57:33;25.83;;;9.67;;
74487;SDS011;63019;51.080;13.642;2024-01-07T01:59:25;28.58;;;10.50;;
74487;SDS011;63019;51.080;13.642;2024-01-07T02:00:27;31.98;;;10.43;;
74487;SDS011;63019;51.080;13.642;2024-01-07T02:01:30;31.85;;;10.38;;
74487;SDS011;63019;51.080;13.642;2024-01-07T02:02:33;25.05;;;9.73;;
74487;SDS011;63019;51.080;13.642;2024-01-07T02:03:38;27.92;;;10.07;;
74487;SDS011;63019;51.080;13.642;2024-01-07T02:04:40;30.92;;;10.77;;
74487;SDS011;63019;51.080;13.642;2024-01-07T02:05:42;27.50;;;10.00;;
74487;SDS011;63019;51.080;13.642;2024-01-07T02:06:45;33.33;;;10.85;;
74487;SDS011;63019;51.080;13.642;2024-01-07T02:07:48;29.30;;;10.10;;
74487;SDS011;63019;51.080;13.642;2024-01-07T02:08:50;21.63;;;9.00;;
74487;SDS011;63019;51.080;13.642;2024-01-07T02:09:53;24.15;;;8.73;;
74487;SDS011;63019;51.080;13.642;2024-01-07T02:10:55;23.60;;;9.05;;
74487;SDS011;63019;51.080;13.642;2024-01-07T02:12:06;23.70;;;9.82;;
74487;SDS011;63019;51.080;13.642;2024-01-07T02:13:13;28.08;;;10.15;;
74487;SDS011;63019;51.080;13.642;2024-01-07T02:14:15;26.45;;;11.25;;
74487;SDS011;63019;51.080;13.642;2024-01-07T02:15:17;24.45;;;9.30;;
74487;SDS011;63019;51.080;13.642;2024-01-07T02:16:19;29.58;;;10.48;;
74487;SDS011;63019;51.080;13.642;2024-01-07T02:17:21;21.73;;;9.73;;
74487;SDS011;63019;51.080;13.642;2024-01-07T02:18:23;19.48;;;8.50;;
74487;SDS011;63019;51.080;13.642;2024-01-07T02:19:26;30.53;;;10.23;;
74487;SDS011;63019;51.080;13.642;2024-01-07T02:20:28;30.27;;;10.68;;
74487;SDS011;63019;51.080;13.642;2024-01-07T02:21:30;26.13;;;10.35;;
74487;SDS011;63019;51.080;13.642;2024-01-07T02:22:32;24.17;;;9.02;;
74487;SDS011;63019;51.080;13.642;2024-01-07T02:23:34;31.60;;;10.63;;
74487;SDS011;63019;51.080;13.642;2024-01-07T02:24:37;25.15;;;9.10;;
74487;SDS011;63019;51.080;13.642;2024-01-07T02:25:39;21.65;;;9.52;;
74487;SDS011;63019;51.080;13.642;2024-01-07T02:26:41;21.70;;;7.80;;
74487;SDS011;63019;51.080;13.642;2024-01-07T02:27:43;28.05;;;9.93;;
74487;SDS011;63019;51.080;13.642;2024-01-07T02:28:45;23.70;;;9.77;;
74487;SDS011;63019;51.080;13.642;2024-01-07T02:29:47;30.23;;;9.87;;
74487;SDS011;63019;51.080;13.642;2024-01-07T02:30:49;25.02;;;9.48;;
74487;SDS011;63019;51.080;13.642;2024-01-07T02:31:51;15.77;;;7.57;;
74487;SDS011;63019;51.080;13.642;2024-01-07T02:32:53;23.30;;;9.65;;
74487;SDS011;63019;51.080;13.642;2024-01-07T02:33:55;23.27;;;9.18;;
74487;SDS011;63019;51.080;13.642;2024-01-07T02:34:58;22.90;;;9.45;;
74487;SDS011;63019;51.080;13.642;2024-01-07T02:36:00;24.88;;;8.75;;
74487;SDS011;63019;51.080;13.642;2024-01-07T02:37:02;14.65;;;5.80;;
74487;SDS011;63019;51.080;13.642;2024-01-07T02:38:04;23.13;;;8.60;;
74487;SDS011;63019;51.080;13.642;2024-01-07T02:39:06;23.30;;;7.80;;
74487;SDS011;63019;51.080;13.642;2024-01-07T02:40:08;20.40;;;8.73;;
74487;SDS011;63019;51.080;13.642;2024-01-07T02:41:11;19.45;;;7.72;;
74487;SDS011;63019;51.080;13.642;2024-01-07T02:42:13;22.38;;;8.35;;
74487;SDS011;63019;51.080;13.642;2024-01-07T02:43:15;21.00;;;7.68;;
74487;SDS011;63019;51.080;13.642;2024-01-07T02:44:17;15.25;;;6.38;;
74487;SDS011;63019;51.080;13.642;2024-01-07T02:45:19;19.90;;;7.57;;
74487;SDS011;63019;51.080;13.642;2024-01-07T02:46:23;25.42;;;8.38;;
74487;SDS011;63019;51.080;13.642;2024-01-07T02:47:25;23.27;;;8.18;;
74487;SDS011;63019;51.080;13.642;2024-01-07T02:48:28;22.23;;;8.40;;
74487;SDS011;63019;51.080;13.642;2024-01-07T02:49:30;21.40;;;7.75;;
74487;SDS011;63019;51.080;13.642;2024-01-07T02:50:32;16.77;;;6.87;;
74487;SDS011;63019;51.080;13.642;2024-01-07T02:51:34;23.15;;;7.35;;
74487;SDS011;63019;51.080;13.642;2024-01-07T02:52:37;23.65;;;8.10;;
74487;SDS011;63019;51.080;13.642;2024-01-07T02:53:38;17.35;;;6.85;;
74487;SDS011;63019;51.080;13.642;2024-01-07T02:54:40;24.30;;;9.05;;
74487;SDS011;63019;51.080;13.642;2024-01-07T02:55:43;24.55;;;8.75;;
74487;SDS011;63019;51.080;13.642;2024-01-07T02:56:45;15.23;;;6.00;;
74487;SDS011;63019;51.080;13.642;2024-01-07T02:57:47;26.02;;;8.57;;
74487;SDS011;63019;51.080;13.642;2024-01-07T02:58:52;22.50;;;8.20;;
74487;SDS011;63019;51.080;13.642;2024-01-07T02:59:54;20.73;;;8.38;;
74487;SDS011;63019;51.080;13.642;2024-01-07T03:00:56;19.53;;;8.20;;
74487;SDS011;63019;51.080;13.642;2024-01-07T03:01:59;22.33;;;7.78;;
74487;SDS011;63019;51.080;13.642;2024-01-07T03:03:01;17.33;;;6.78;;
74487;SDS011;63019;51.080;13.642;2024-01-07T03:04:03;17.95;;;6.88;;
74487;SDS011;63019;51.080;13.642;2024-01-07T03:05:05;17.50;;;7.50;;
74487;SDS011;63019;51.080;13.642;2024-01-07T03:06:08;17.58;;;7.18;;
74487;SDS011;63019;51.080;13.642;2024-01-07T03:07:10;18.30;;;7.30;;
74487;SDS011;63019;51.080;13.642;2024-01-07T03:08:12;20.77;;;7.43;;
74487;SDS011;63019;51.080;13.642;2024-01-07T03:09:14;18.25;;;8.00;;
74487;SDS011;63019;51.080;13.642;2024-01-07T03:10:16;21.83;;;8.00;;
74487;SDS011;63019;51.080;13.642;2024-01-07T03:11:18;27.50;;;8.63;;
74487;SDS011;63019;51.080;13.642;2024-01-07T03:12:20;17.05;;;6.55;;
74487;SDS011;63019;51.080;13.642;2024-01-07T03:13:22;13.68;;;5.90;;
74487;SDS011;63019;51.080;13.642;2024-01-07T03:14:24;13.82;;;5.90;;
74487;SDS011;63019;51.080;13.642;2024-01-07T03:15:28;19.40;;;7.50;;
74487;SDS011;63019;51.080;13.642;2024-01-07T03:16:30;14.23;;;5.88;;
74487;SDS011;63019;51.080;13.642;2024-01-07T03:17:32;24.05;;;8.13;;
74487;SDS011;63019;51.080;13.642;2024-01-07T03:18:34;21.83;;;8.60;;
74487;SDS011;63019;51.080;13.642;2024-01-07T03:19:39;23.50;;;8.80;;
74487;SDS011;63019;51.080;13.642;2024-01-07T03:20:42;21.45;;;7.78;;
74487;SDS011;63019;51.080;13.642;2024-01-07T03:21:44;18.23;;;7.10;;
74487;SDS011;63019;51.080;13.642;2024-01-07T03:22:46;20.02;;;7.88;;
74487;SDS011;63019;51.080;13.642;2024-01-07T03:23:48;23.20;;;8.63;;
74487;SDS011;63019;51.080;13.642;2024-01-07T03:24:52;23.27;;;8.85;;
74487;SDS011;63019;51.080;13.642;2024-01-07T03:25:54;19.10;;;7.43;;
74487;SDS011;63019;51.080;13.642;2024-01-07T03:26:56;16.85;;;6.95;;
74487;SDS011;63019;51.080;13.642;2024-01-07T03:27:58;16.08;;;5.97;;
74487;SDS011;63019;51.080;13.642;2024-01-07T03:29:00;22.90;;;7.43;;
74487;SDS011;63019;51.080;13.642;2024-01-07T03:30:03;17.05;;;7.30;;
74487;SDS011;63019;51.080;13.642;2024-01-07T03:31:10;21.08;;;7.75;;
74487;SDS011;63019;51.080;13.642;2024-01-07T03:32:14;16.77;;;6.53;;
74487;SDS011;63019;51.080;13.642;2024-01-07T03:33:16;20.55;;;7.75;;
74487;SDS011;63019;51.080;13.642;2024-01-07T03:34:18;18.35;;;7.57;;
74487;SDS011;63019;51.080;13.642;2024-01-07T03:35:24;19.23;;;6.85;;
74487;SDS011;63019;51.080;13.642;2024-01-07T03:36:26;19.00;;;7.50;;
74487;SDS011;63019;51.080;13.642;2024-01-07T03:37:28;23.00;;;8.18;;
74487;SDS011;63019;51.080;13.642;2024-01-07T03:38:30;20.98;;;8.35;;
74487;SDS011;63019;51.080;13.642;2024-01-07T03:39:33;20.80;;;7.68;;
74487;SDS011;63019;51.080;13.642;2024-01-07T03:40:35;25.52;;;7.18;;
74487;SDS011;63019;51.080;13.642;2024-01-07T03:41:37;17.95;;;6.72;;
74487;SDS011;63019;51.080;13.642;2024-01-07T03:42:39;17.63;;;8.03;;
74487;SDS011;63019;51.080;13.642;2024-01-07T03:43:41;16.40;;;7.25;;
74487;SDS011;63019;51.080;13.642;2024-01-07T03:44:43;17.95;;;7.32;;
74487;SDS011;63019;51.080;13.642;2024-01-07T03:45:45;20.58;;;7.78;;
74487;SDS011;63019;51.080;13.642;2024-01-07T03:46:47;24.65;;;7.75;;
74487;SDS011;63019;51.080;13.642;2024-01-07T03:47:50;18.17;;;7.22;;
74487;SDS011;63019;51.080;13.642;2024-01-07T03:48:52;17.20;;;7.65;;
74487;SDS011;63019;51.080;13.642;2024-01-07T03:49:54;16.55;;;7.40;;
74487;SDS011;63019;51.080;13.642;2024-01-07T03:50:56;17.05;;;7.40;;
74487;SDS011;63019;51.080;13.642;2024-01-07T03:51:58;25.75;;;7.18;;
74487;SDS011;63019;51.080;13.642;2024-01-07T03:53:01;19.13;;;7.40;;
74487;SDS011;63019;51.080;13.642;2024-01-07T03:54:03;18.88;;;7.40;;
74487;SDS011;63019;51.080;13.642;2024-01-07T03:55:05;13.45;;;5.95;;
74487;SDS011;63019;51.080;13.642;2024-01-07T03:56:08;13.90;;;5.97;;
74487;SDS011;63019;51.080;13.642;2024-01-07T03:57:10;24.45;;;8.45;;
74487;SDS011;63019;51.080;13.642;2024-01-07T03:58:12;17.90;;;7.13;;
74487;SDS011;63019;51.080;13.642;2024-01-07T03:59:14;19.20;;;6.75;;
74487;SDS011;63019;51.080;13.642;2024-01-07T04:00:16;21.70;;;7.80;;
74487;SDS011;63019;51.080;13.642;2024-01-07T04:01:18;15.88;;;7.25;;
74487;SDS011;63019;51.080;13.642;2024-01-07T04:02:20;14.32;;;5.97;;
74487;SDS011;63019;51.080;13.642;2024-01-07T04:03:22;19.77;;;7.97;;
74487;SDS011;63019;51.080;13.642;2024-01-07T04:04:25;21.25;;;8.07;;
74487;SDS011;63019;51.080;13.642;2024-01-07T04:05:27;19.58;;;7.63;;
74487;SDS011;63019;51.080;13.642;2024-01-07T04:06:30;19.02;;;6.47;;
74487;SDS011;63019;51.080;13.642;2024-01-07T04:07:32;21.02;;;6.88;;
74487;SDS011;63019;51.080;13.642;2024-01-07T04:08:35;15.32;;;6.35;;
74487;SDS011;63019;51.080;13.642;2024-01-07T04:09:37;23.73;;;7.28;;
74487;SDS011;63019;51.080;13.642;2024-01-07T04:10:39;14.57;;;6.57;;
74487;SDS011;63019;51.080;13.642;2024-01-07T04:11:42;17.25;;;7.22;;
74487;SDS011;63019;51.080;13.642;2024-01-07T04:12:44;15.25;;;6.68;;
74487;SDS011;63019;51.080;13.642;2024-01-07T04:13:46;16.47;;;6.33;;
74487;SDS011;63019;51.080;13.642;2024-01-07T04:14:48;19.30;;;5.93;;
74487;SDS011;63019;51.080;13.642;2024-01-07T04:15:50;19.00;;;6.88;;
74487;SDS011;63019;51.080;13.642;2024-01-07T04:16:52;14.90;;;6.35;;
74487;SDS011;63019;51.080;13.642;2024-01-07T04:17:54;16.35;;;6.32;;
74487;SDS011;63019;51.080;13.642;2024-01-07T04:18:56;17.95;;;6.35;;
74487;SDS011;63019;51.080;13.642;2024-01-07T04:19:59;20.10;;;7.38;;
74487;SDS011;63019;51.080;13.642;2024-01-07T04:21:01;19.77;;;7.50;;
74487;SDS011;63019;51.080;13.642;2024-01-07T04:22:03;13.90;;;6.25;;
74487;SDS011;63019;51.080;13.642;2024-01-07T04:23:05;19.75;;;6.47;;
74487;SDS011;63019;51.080;13.642;2024-01-07T04:24:07;17.60;;;6.07;;
74487;SDS011;63019;51.080;13.642;2024-01-07T04:25:09;23.20;;;7.60;;
74487;SDS011;63019;51.080;13.642;2024-01-07T04:26:12;19.08;;;7.32;;
74487;SDS011;63019;51.080;13.642;2024-01-07T04:27:14;20.50;;;7.45;;
74487;SDS011;63019;51.080;13.642;2024-01-07T04:28:16;16.00;;;6.13;;
74487;SDS011;63019;51.080;13.642;2024-01-07T04:29:19;17.85;;;6.40;;
74487;SDS011;63019;51.080;13.642;2024-01-07T04:30:21;15.20;;;7.15;;
74487;SDS011;63019;51.080;13.642;2024-01-07T04:31:23;15.07;;;6.45;;
74487;SDS011;63019;51.080;13.642;2024-01-07T04:32:25;20.55;;;6.60;;
74487;SDS011;63019;51.080;13.642;2024-01-07T04:33:27;16.00;;;5.93;;
74487;SDS011;63019;51.080;13.642;2024-01-07T04:34:30;14.07;;;5.67;;
74487;SDS011;63019;51.080;13.642;2024-01-07T04:35:32;17.58;;;6.20;;
74487;SDS011;63019;51.080;13.642;2024-01-07T04:36:34;14.95;;;5.95;;
74487;SDS011;63019;51.080;13.642;2024-01-07T04:37:37;19.65;;;6.95;;
74487;SDS011;63019;51.080;13.642;2024-01-07T04:38:40;18.10;;;6.90;;
74487;SDS011;63019;51.080;13.642;2024-01-07T04:39:42;18.38;;;7.05;;
74487;SDS011;63019;51.080;13.642;2024-01-07T04:40:46;23.38;;;7.75;;
74487;SDS011;63019;51.080;13.642;2024-01-07T04:41:49;17.27;;;7.13;;
74487;SDS011;63019;51.080;13.642;2024-01-07T04:42:51;16.40;;;6.88;;
74487;SDS011;63019;51.080;13.642;2024-01-07T04:43:53;15.95;;;5.72;;
74487;SDS011;63019;51.080;13.642;2024-01-07T04:44:55;17.73;;;7.17;;
74487;SDS011;63019;51.080;13.642;2024-01-07T04:45:57;18.20;;;6.68;;
74487;SDS011;63019;51.080;13.642;2024-01-07T04:47:02;16.90;;;6.82;;
74487;SDS011;63019;51.080;13.642;2024-01-07T04:48:04;15.43;;;5.38;;
74487;SDS011;63019;51.080;13.642;2024-01-07T04:49:07;18.83;;;6.75;;
74487;SDS011;63019;51.080;13.642;2024-01-07T04:50:09;16.15;;;6.43;;
74487;SDS011;63019;51.080;13.642;2024-01-07T04:51:11;15.40;;;6.30;;
74487;SDS011;63019;51.080;13.642;2024-01-07T04:52:13;18.17;;;5.72;;
74487;SDS011;63019;51.080;13.642;2024-01-07T04:53:15;15.13;;;6.75;;
74487;SDS011;63019;51.080;13.642;2024-01-07T04:54:17;14.23;;;5.93;;
74487;SDS011;63019;51.080;13.642;2024-01-07T04:55:20;19.33;;;7.07;;
74487;SDS011;63019;51.080;13.642;2024-01-07T04:56:22;13.35;;;5.93;;
74487;SDS011;63019;51.080;13.642;2024-01-07T04:57:24;17.80;;;6.88;;
74487;SDS011;63019;51.080;13.642;2024-01-07T04:58:26;15.57;;;5.80;;
74487;SDS011;63019;51.080;13.642;2024-01-07T04:59:28;19.85;;;6.60;;
74487;SDS011;63019;51.080;13.642;2024-01-07T05:00:30;15.40;;;6.13;;
74487;SDS011;63019;51.080;13.642;2024-01-07T05:01:33;15.00;;;6.28;;
74487;SDS011;63019;51.080;13.642;2024-01-07T05:02:35;15.07;;;5.70;;
74487;SDS011;63019;51.080;13.642;2024-01-07T05:03:37;13.27;;;5.47;;
74487;SDS011;63019;51.080;13.642;2024-01-07T05:04:40;20.17;;;5.90;;
74487;SDS011;63019;51.080;13.642;2024-01-07T05:05:43;15.90;;;4.00;;
74487;SDS011;63019;51.080;13.642;2024-01-07T05:06:45;14.27;;;6.25;;
74487;SDS011;63019;51.080;13.642;2024-01-07T05:07:47;15.90;;;6.03;;
74487;SDS011;63019;51.080;13.642;2024-01-07T05:08:49;12.95;;;4.68;;
74487;SDS011;63019;51.080;13.642;2024-01-07T05:09:51;14.68;;;5.53;;
74487;SDS011;63019;51.080;13.642;2024-01-07T05:10:53;16.98;;;6.28;;
74487;SDS011;63019;51.080;13.642;2024-01-07T05:11:55;12.38;;;5.32;;
74487;SDS011;63019;51.080;13.642;2024-01-07T05:12:57;15.98;;;6.22;;
74487;SDS011;63019;51.080;13.642;2024-01-07T05:13:59;11.20;;;4.85;;
74487;SDS011;63019;51.080;13.642;2024-01-07T05:15:01;21.80;;;5.05;;
74487;SDS011;63019;51.080;13.642;2024-01-07T05:16:04;15.50;;;4.97;;
74487;SDS011;63019;51.080;13.642;2024-01-07T05:17:06;12.57;;;5.40;;
74487;SDS011;63019;51.080;13.642;2024-01-07T05:18:08;19.27;;;6.35;;
74487;SDS011;63019;51.080;13.642;2024-01-07T05:19:11;15.55;;;6.30;;
74487;SDS011;63019;51.080;13.642;2024-01-07T05:20:15;13.82;;;5.35;;
74487;SDS011;63019;51.080;13.642;2024-01-07T05:21:18;14.13;;;5.15;;
74487;SDS011;63019;51.080;13.642;2024-01-07T05:22:21;12.93;;;4.97;;
74487;SDS011;63019;51.080;13.642;2024-01-07T05:23:23;14.43;;;5.68;;
74487;SDS011;63019;51.080;13.642;2024-01-07T05:24:25;12.60;;;5.93;;
74487;SDS011;63019;51.080;13.642;2024-01-07T05:25:27;17.17;;;5.82;;
74487;SDS011;63019;51.080;13.642;2024-01-07T05:26:29;14.27;;;5.43;;
74487;SDS011;63019;51.080;13.642;2024-01-07T05:27:32;13.70;;;4.93;;
74487;SDS011;63019;51.080;13.642;2024-01-07T05:28:34;11.73;;;4.68;;
74487;SDS011;63019;51.080;13.642;2024-01-07T05:29:37;14.25;;;5.28;;
74487;SDS011;63019;51.080;13.642;2024-01-07T05:30:39;11.80;;;4.03;;
74487;SDS011;63019;51.080;13.642;2024-01-07T05:31:42;13.50;;;4.90;;
74487;SDS011;63019;51.080;13.642;2024-01-07T05:32:44;10.48;;;3.92;;
74487;SDS011;63019;51.080;13.642;2024-01-07T05:33:47;10.23;;;4.20;;
74487;SDS011;63019;51.080;13.642;2024-01-07T05:34:49;8.75;;;3.90;;
74487;SDS011;63019;51.080;13.642;2024-01-07T05:35:52;14.00;;;4.55;;
74487;SDS011;63019;51.080;13.642;2024-01-07T05:36:54;12.87;;;5.00;;
74487;SDS011;63019;51.080;13.642;2024-01-07T05:37:56;11.48;;;4.18;;
74487;SDS011;63019;51.080;13.642;2024-01-07T05:38:58;9.88;;;4.18;;
74487;SDS011;63019;51.080;13.642;2024-01-07T05:40:00;12.57;;;4.80;;
74487;SDS011;63019;51.080;13.642;2024-01-07T05:41:03;12.68;;;4.68;;
74487;SDS011;63019;51.080;13.642;2024-01-07T05:42:05;11.15;;;4.75;;
74487;SDS011;63019;51.080;13.642;2024-01-07T05:43:07;9.98;;;5.13;;
74487;SDS011;63019;51.080;13.642;2024-01-07T05:44:09;11.10;;;5.07;;
74487;SDS011;63019;51.080;13.642;2024-01-07T05:45:12;14.77;;;5.38;;
74487;SDS011;63019;51.080;13.642;2024-01-07T05:46:15;10.15;;;4.22;;
74487;SDS011;63019;51.080;13.642;2024-01-07T05:47:17;14.03;;;5.00;;
74487;SDS011;63019;51.080;13.642;2024-01-07T05:48:22;14.73;;;4.95;;
74487;SDS011;63019;51.080;13.642;2024-01-07T05:49:24;12.75;;;4.32;;
74487;SDS011;63019;51.080;13.642;2024-01-07T05:50:27;11.35;;;5.03;;
74487;SDS011;63019;51.080;13.642;2024-01-07T05:51:29;5.38;;;2.17;;
74487;SDS011;63019;51.080;13.642;2024-01-07T05:52:31;18.45;;;4.50;;
74487;SDS011;63019;51.080;13.642;2024-01-07T05:53:33;11.25;;;4.43;;
74487;SDS011;63019;51.080;13.642;2024-01-07T05:54:35;11.48;;;4.95;;
74487;SDS011;63019;51.080;13.642;2024-01-07T05:55:37;10.05;;;3.83;;
74487;SDS011;63019;51.080;13.642;2024-01-07T05:56:39;16.33;;;4.57;;
74487;SDS011;63019;51.080;13.642;2024-01-07T05:57:43;12.47;;;4.57;;
74487;SDS011;63019;51.080;13.642;2024-01-07T05:58:45;6.38;;;3.42;;
74487;SDS011;63019;51.080;13.642;2024-01-07T05:59:47;11.45;;;4.07;;
74487;SDS011;63019;51.080;13.642;2024-01-07T06:00:55;8.20;;;3.83;;
74487;SDS011;63019;51.080;13.642;2024-01-07T06:02:00;11.82;;;4.25;;
74487;SDS011;63019;51.080;13.642;2024-01-07T06:03:02;9.18;;;4.03;;
74487;SDS011;63019;51.080;13.642;2024-01-07T06:04:04;13.77;;;4.82;;
74487;SDS011;63019;51.080;13.642;2024-01-07T06:05:07;19.45;;;4.60;;